Terminal Aerodrome Forecast
Issued by NWS Mt. Holly, NJ

Home | Current Version | Previous Version | Text Only | Print | Product List | Glossary On
Versions: 1 2 3 4 5 6 7 8 9 10 11 12 13 14
000
FTUS41 KPHI 261123
TAFRDG
TAF
KRDG 261123Z 2612/2712 35005KT P6SM BKN200
     FM261400 03006KT P6SM BKN200
     FM261800 35007KT P6SM SCT050 BKN200
     FM262300 32004KT P6SM BKN100=

USA.gov is the U.S. government's official web portal to all federal, state and local government web resources and services.